Time;durP1;ratioP1;P1;durP2;ratioP2;P2;SDS_P1;SDS_P2;PMS_P1;PMS_P2;Temp;Humidity;BMP_temperature;BMP_pressure;BME280_temperature;BME280_humidity;BME280_pressure;Samples;Min_cycle;Max_cycle;Signal;HPM_P1;HPM_P2
2022/08/12 00:43:16;;;;;;;4.60;1.42;;;20.90;60.10;;;;;;4992444;28;20052;-71
2022/08/12 00:48:28;;;;;;;3.22;1.83;;;20.90;60.20;;;;;;4991990;28;20053;-78
2022/08/12 00:50:55;;;;;;;3.95;1.65;;;20.90;60.30;;;;;;4991786;28;20642;-77
2022/08/12 00:53:21;;;;;;;2.67;1.38;;;20.90;60.20;;;;;;4996802;28;20054;-79
2022/08/12 00:55:50;;;;;;;4.95;1.80;;;20.80;60.50;;;;;;4996188;28;20054;-78
2022/08/12 00:58:22;;;;;;;4.20;1.85;;;20.80;60.40;;;;;;4995623;28;20046;-77
2022/08/12 01:00:49;;;;;;;3.42;1.67;;;20.80;60.70;;;;;;5002401;28;20073;-78
2022/08/12 01:03:19;;;;;;;2.53;1.73;;;20.80;60.70;;;;;;4983077;28;20026;-76
2022/08/12 01:11:29;;;;;;;2.58;1.90;;;20.70;61.20;;;;;;4990589;28;20442;-76
2022/08/12 01:13:57;;;;;;;2.97;1.88;;;20.70;61.20;;;;;;4992568;28;20497;-77
2022/08/12 01:16:24;;;;;;;2.40;1.70;;;20.70;61.60;;;;;;4987933;28;20545;-76
2022/08/12 01:18:52;;;;;;;3.28;1.83;;;20.70;61.70;;;;;;4987737;28;20592;-76
2022/08/12 01:21:27;;;;;;;4.18;1.92;;;20.60;61.70;;;;;;4989981;28;20502;-76
2022/08/12 01:23:58;;;;;;;2.58;1.73;;;20.60;62.60;;;;;;5001485;28;20031;-76
2022/08/12 01:26:25;;;;;;;3.10;1.75;;;20.60;62.00;;;;;;4989245;28;20553;-76
2022/08/12 01:28:55;;;;;;;2.40;1.70;;;20.50;62.10;;;;;;4992166;28;20037;-75
2022/08/12 01:31:21;;;;;;;4.00;1.70;;;20.50;62.50;;;;;;4989692;28;21324;-76
2022/08/12 01:34:03;;;;;;;2.55;1.95;;;20.50;62.50;;;;;;4985060;28;20050;-76
2022/08/12 01:36:35;;;;;;;1.90;1.60;;;20.40;62.50;;;;;;4987128;28;20483;-76
2022/08/12 01:39:03;;;;;;;2.75;1.88;;;20.40;62.70;;;;;;4991275;28;20020;-75
2022/08/12 01:41:30;;;;;;;3.08;1.50;;;20.40;63.10;;;;;;4985776;28;20073;-76
2022/08/12 01:44:00;;;;;;;4.13;1.92;;;20.40;63.20;;;;;;4986061;28;20117;-76
2022/08/12 01:47:22;;;;;;;4.90;2.10;;;20.30;63.20;;;;;;4991242;28;20109;-75
2022/08/12 01:50:15;;;;;;;3.33;1.70;;;20.30;63.10;;;;;;4974182;28;20038;-76
2022/08/12 01:52:53;;;;;;;2.10;1.52;;;20.30;63.20;;;;;;4989913;28;20069;-76
2022/08/12 01:55:23;;;;;;;3.53;1.70;;;20.30;63.50;;;;;;4990009;28;20030;-76
2022/08/12 01:57:57;;;;;;;4.05;2.10;;;20.20;63.40;;;;;;4988289;28;20030;-75
2022/08/12 02:00:30;;;;;;;4.38;1.83;;;20.20;63.70;;;;;;4988369;28;20541;-74
2022/08/12 02:12:53;;;;;;;3.40;2.23;;;19.90;65.00;;;;;;4987931;28;20096;-76
2022/08/12 02:15:44;;;;;;;6.82;2.72;;;19.90;65.80;;;;;;4988957;28;20030;-77
2022/08/12 02:18:23;;;;;;;5.82;2.20;;;19.80;65.50;;;;;;4982919;28;20034;-76
2022/08/12 02:21:16;;;;;;;4.05;1.73;;;19.80;65.30;;;;;;4974503;28;20117;-76
2022/08/12 02:23:42;;;;;;;4.93;2.20;;;19.80;65.50;;;;;;4989341;28;20073;-76
2022/08/12 02:26:11;;;;;;;7.38;2.33;;;19.70;65.90;;;;;;4987242;28;20153;-76
2022/08/12 02:28:37;;;;;;;2.90;2.13;;;19.70;66.20;;;;;;4993082;28;20097;-77
2022/08/12 02:31:08;;;;;;;4.13;1.80;;;19.60;66.10;;;;;;4993550;28;20166;-77
2022/08/12 02:33:36;;;;;;;4.55;1.92;;;19.60;66.00;;;;;;4997018;28;20034;-76
2022/08/12 02:36:03;;;;;;;4.30;1.90;;;19.60;65.80;;;;;;4987278;28;20031;-77
2022/08/12 02:38:30;;;;;;;3.78;1.63;;;19.60;65.70;;;;;;4985037;28;20019;-76
2022/08/12 02:41:00;;;;;;;6.75;2.05;;;19.60;65.70;;;;;;4986688;28;20114;-76
2022/08/12 02:43:36;;;;;;;4.50;2.05;;;19.60;65.60;;;;;;4990372;28;20053;-77
2022/08/12 02:46:12;;;;;;;5.95;1.83;;;19.60;65.70;;;;;;4985836;28;20030;-76
2022/08/12 02:48:46;;;;;;;3.08;1.60;;;19.60;65.80;;;;;;4988116;28;20058;-76
2022/08/12 02:51:18;;;;;;;3.00;1.70;;;19.60;65.80;;;;;;5000989;28;20029;-77
2022/08/12 02:53:45;;;;;;;2.47;1.80;;;19.60;66.00;;;;;;4987644;28;20040;-76
2022/08/12 02:56:14;;;;;;;2.20;1.92;;;19.60;66.00;;;;;;4987815;28;20109;-77
2022/08/12 02:58:39;;;;;;;5.68;2.35;;;19.60;66.00;;;;;;4990364;28;20105;-77
2022/08/12 03:01:10;;;;;;;5.82;2.67;;;19.50;66.30;;;;;;4988668;28;20034;-76
2022/08/12 03:03:37;;;;;;;4.18;2.65;;;19.40;67.50;;;;;;4987616;28;20027;-76
2022/08/12 03:06:14;;;;;;;4.93;2.65;;;19.30;67.60;;;;;;4981711;28;20376;-77
2022/08/12 03:08:42;;;;;;;5.93;2.58;;;19.30;67.90;;;;;;4984415;28;20022;-77
2022/08/12 03:11:33;;;;;;;3.83;2.17;;;19.20;68.40;;;;;;4985748;28;20027;-76
2022/08/12 03:14:01;;;;;;;3.88;2.20;;;19.10;69.10;;;;;;4977363;28;20513;-77
2022/08/12 03:16:29;;;;;;;3.60;2.50;;;19.00;69.00;;;;;;4986877;28;20498;-76
2022/08/12 03:18:56;;;;;;;4.53;2.55;;;19.00;69.40;;;;;;4982318;28;20051;-77
2022/08/12 03:21:25;;;;;;;4.25;2.78;;;18.90;69.80;;;;;;4990008;28;20027;-77
2022/08/12 03:23:56;;;;;;;5.38;2.67;;;18.80;69.90;;;;;;4988716;28;20376;-77
2022/08/12 03:26:23;;;;;;;5.38;2.70;;;18.80;70.20;;;;;;4984462;28;20029;-77
2022/08/12 03:28:49;;;;;;;4.05;2.63;;;18.70;70.40;;;;;;4988218;28;20109;-77
2022/08/12 03:31:28;;;;;;;6.65;2.60;;;18.60;70.50;;;;;;4987225;28;20440;-76
2022/08/12 03:33:58;;;;;;;5.38;2.50;;;18.70;71.50;;;;;;4989634;28;20030;-76
2022/08/12 03:36:26;;;;;;;6.07;3.10;;;18.60;71.40;;;;;;4985350;28;20034;-76
2022/08/12 03:41:57;;;;;;;7.25;3.05;;;18.50;71.60;;;;;;4982767;28;20089;-76
2022/08/12 04:01:46;;;;;;;4.15;3.15;;;18.20;73.10;;;;;;4989481;28;20441;-77
2022/08/12 04:04:12;;;;;;;5.72;4.10;;;18.20;73.40;;;;;;4993661;28;20015;-77
2022/08/12 04:06:45;;;;;;;20.27;4.80;;;18.10;73.70;;;;;;4998214;28;20082;-77
2022/08/12 04:09:12;;;;;;;5.75;3.50;;;18.10;73.90;;;;;;4989307;28;20080;-76
2022/08/12 04:14:26;;;;;;;12.48;4.15;;;18.00;74.10;;;;;;4983303;28;20407;-77
2022/08/12 04:16:53;;;;;;;5.05;4.13;;;17.90;74.20;;;;;;4981734;28;20324;-76
2022/08/12 04:19:19;;;;;;;5.95;3.40;;;17.90;74.30;;;;;;4987528;28;20179;-77
2022/08/12 04:21:45;;;;;;;8.15;3.80;;;17.90;74.30;;;;;;4987139;28;20037;-77
2022/08/12 04:24:11;;;;;;;5.15;3.40;;;17.90;74.50;;;;;;4985961;28;20018;-76
2022/08/12 04:26:40;;;;;;;6.18;3.83;;;17.80;74.60;;;;;;4985760;28;20057;-76
2022/08/12 04:29:09;;;;;;;7.38;3.78;;;17.80;74.70;;;;;;4987886;28;20041;-77
2022/08/12 04:31:41;;;;;;;9.38;4.22;;;17.80;75.00;;;;;;4984366;28;20022;-76
2022/08/12 04:34:08;;;;;;;10.35;3.70;;;17.80;74.90;;;;;;4980059;28;20222;-77
2022/08/12 04:36:38;;;;;;;6.20;3.88;;;17.80;75.50;;;;;;4983877;28;20038;-76
2022/08/12 04:39:06;;;;;;;5.90;3.60;;;17.70;75.20;;;;;;4982444;28;20030;-76
2022/08/12 04:41:33;;;;;;;7.90;3.67;;;17.70;75.30;;;;;;4990374;28;20061;-75
2022/08/12 04:44:00;;;;;;;6.72;3.50;;;17.60;75.30;;;;;;4989563;28;20026;-76
2022/08/12 04:46:26;;;;;;;7.63;3.25;;;17.60;75.30;;;;;;4985265;28;20673;-76
2022/08/12 04:48:52;;;;;;;6.10;3.55;;;17.60;75.70;;;;;;4988212;28;20030;-76
2022/08/12 04:51:22;;;;;;;4.95;3.65;;;17.60;75.80;;;;;;4988674;28;20030;-75
2022/08/12 04:53:49;;;;;;;5.53;3.50;;;17.60;75.90;;;;;;4987952;28;20045;-71
2022/08/12 04:56:15;;;;;;;7.55;4.20;;;17.60;76.10;;;;;;4989727;28;20038;-70
2022/08/12 04:58:41;;;;;;;5.30;3.65;;;17.60;76.60;;;;;;4993101;28;20109;-70
2022/08/12 05:01:08;;;;;;;5.78;3.38;;;17.60;76.70;;;;;;4989731;28;20041;-70
2022/08/12 05:03:36;;;;;;;7.45;3.63;;;17.60;76.80;;;;;;4989427;28;20176;-70
2022/08/12 05:06:04;;;;;;;6.57;3.95;;;17.50;76.70;;;;;;4986672;28;20105;-70
2022/08/12 05:08:30;;;;;;;4.80;3.65;;;17.60;76.80;;;;;;4990366;28;20404;-69
2022/08/12 05:10:57;;;;;;;7.80;3.85;;;17.60;76.80;;;;;;4992566;28;20033;-70
2022/08/12 05:13:26;;;;;;;6.05;3.75;;;17.70;76.70;;;;;;4990481;28;20034;-70
2022/08/12 05:15:52;;;;;;;5.78;4.13;;;17.80;76.40;;;;;;4988583;28;20395;-70
2022/08/12 05:18:18;;;;;;;6.75;4.28;;;17.90;76.20;;;;;;4990068;28;20031;-70
2022/08/12 05:20:43;;;;;;;8.73;4.10;;;18.00;76.00;;;;;;4986102;28;20125;-71
2022/08/12 05:23:11;;;;;;;7.60;4.75;;;18.20;75.70;;;;;;4991033;28;20022;-70
2022/08/12 05:25:37;;;;;;;8.13;4.68;;;18.30;75.30;;;;;;4989112;28;20057;-70
2022/08/12 05:28:06;;;;;;;8.18;4.68;;;18.40;74.80;;;;;;4983390;28;20445;-70
2022/08/12 05:30:33;;;;;;;5.18;4.25;;;18.50;74.40;;;;;;4991518;28;20448;-71
2022/08/12 05:33:04;;;;;;;9.30;5.40;;;18.60;74.20;;;;;;4982933;28;20110;-76
2022/08/12 05:35:41;;;;;;;7.43;5.63;;;18.70;74.10;;;;;;4987724;28;20026;-76
2022/08/12 05:40:51;;;;;;;7.93;5.50;;;19.00;73.30;;;;;;4987617;28;20110;-76
2022/08/12 05:43:17;;;;;;;7.45;4.60;;;19.20;73.00;;;;;;4989507;28;20050;-76
2022/08/12 05:45:44;;;;;;;6.65;4.72;;;19.30;72.40;;;;;;4988514;28;20034;-76
2022/08/12 05:48:10;;;;;;;7.45;4.57;;;19.40;71.80;;;;;;4990934;28;20026;-76
2022/08/12 05:50:36;;;;;;;5.65;4.07;;;19.50;71.70;;;;;;4989674;28;20034;-76
2022/08/12 05:53:02;;;;;;;6.55;4.20;;;19.60;71.60;;;;;;4991619;28;20113;-73
2022/08/12 05:55:28;;;;;;;7.72;4.57;;;19.80;71.30;;;;;;4985631;28;20395;-75
2022/08/12 05:57:55;;;;;;;6.43;4.00;;;19.90;70.70;;;;;;4979642;28;20061;-75
2022/08/12 06:00:25;;;;;;;7.57;4.22;;;19.90;70.30;;;;;;5008282;23;20471;-77
2022/08/12 06:02:55;;;;;;;6.47;3.38;;;20.10;70.10;;;;;;5039639;28;20045;-76
2022/08/12 06:05:22;;;;;;;9.30;3.88;;;20.10;69.90;;;;;;5024986;28;20014;-76
2022/08/12 06:07:48;;;;;;;12.63;4.20;;;20.20;69.70;;;;;;5028076;28;20108;-75
2022/08/12 06:10:18;;;;;;;5.43;3.70;;;20.30;69.60;;;;;;5023368;28;20164;-75
2022/08/12 06:12:47;;;;;;;5.50;3.42;;;20.30;69.50;;;;;;5028718;28;20072;-75
2022/08/12 06:15:17;;;;;;;9.35;3.90;;;20.40;69.40;;;;;;5025942;28;20454;-75
2022/08/12 06:17:43;;;;;;;10.00;3.50;;;20.40;69.30;;;;;;5022255;28;20083;-75
2022/08/12 06:20:12;;;;;;;13.20;4.35;;;20.40;69.50;;;;;;5028130;28;20040;-77
2022/08/12 06:22:46;;;;;;;19.95;4.10;;;20.40;69.60;;;;;;5025189;28;20533;-76
2022/08/12 06:25:17;;;;;;;13.13;3.60;;;20.50;69.60;;;;;;5020001;28;20025;-75
2022/08/12 06:27:47;;;;;;;9.18;3.60;;;20.40;69.40;;;;;;5021724;28;20124;-75
2022/08/12 06:30:16;;;;;;;5.88;3.22;;;20.40;69.50;;;;;;5026950;28;20021;-75
2022/08/12 06:32:42;;;;;;;8.82;3.35;;;20.40;69.60;;;;;;5045818;28;20026;-75
2022/08/12 06:35:10;;;;;;;5.30;2.90;;;20.20;69.60;;;;;;5020068;28;20037;-75
2022/08/12 06:37:44;;;;;;;6.00;2.92;;;20.20;69.60;;;;;;5021582;28;20048;-75
2022/08/12 06:40:12;;;;;;;6.55;3.47;;;20.20;69.90;;;;;;5019544;28;20036;-75
2022/08/12 06:42:50;;;;;;;5.10;2.80;;;20.20;69.90;;;;;;5021356;28;20028;-75
2022/08/12 06:45:19;;;;;;;6.97;3.05;;;20.20;70.20;;;;;;5023121;28;20494;-75
2022/08/12 06:47:46;;;;;;;8.75;2.95;;;20.20;70.30;;;;;;5025424;28;20041;-75
2022/08/12 06:50:15;;;;;;;2.75;2.33;;;20.20;70.30;;;;;;5021041;28;20121;-74
2022/08/12 06:52:44;;;;;;;9.27;3.67;;;20.20;70.30;;;;;;5024073;28;20017;-75
2022/08/12 06:55:14;;;;;;;6.85;3.40;;;20.30;70.50;;;;;;5024119;28;20078;-75
2022/08/12 06:57:54;;;;;;;10.20;3.58;;;20.30;70.40;;;;;;5027115;28;20087;-75
2022/08/12 07:00:21;;;;;;;13.32;3.38;;;20.30;70.00;;;;;;5022606;28;20033;-75
2022/08/12 07:02:47;;;;;;;6.63;2.75;;;20.40;70.40;;;;;;5022489;28;20112;-75
2022/08/12 07:05:13;;;;;;;4.10;2.92;;;20.50;69.20;;;;;;5027902;28;20151;-75
2022/08/12 07:07:38;;;;;;;5.68;2.50;;;20.50;68.90;;;;;;5039480;28;20029;-75
2022/08/12 07:10:04;;;;;;;11.02;2.63;;;20.50;68.30;;;;;;5025236;28;20037;-75
2022/08/12 07:12:30;;;;;;;6.35;2.17;;;20.50;68.40;;;;;;5022008;28;20579;-75
2022/08/12 07:15:00;;;;;;;3.63;2.35;;;20.50;68.80;;;;;;5026183;28;20061;-75
2022/08/12 07:17:30;;;;;;;4.60;2.63;;;20.50;69.00;;;;;;5020964;28;20029;-76
2022/08/12 07:19:56;;;;;;;4.63;2.60;;;20.60;69.20;;;;;;5022795;28;20074;-75
2022/08/12 07:22:22;;;;;;;7.75;2.75;;;20.60;69.20;;;;;;5026831;28;20021;-76
2022/08/12 07:25:29;;;;;;;6.68;2.75;;;20.70;69.30;;;;;;5024717;28;20037;-75
2022/08/12 07:27:39;;;;;;;10.95;2.80;;;20.70;69.10;;;;;;5020260;28;20022;-76
2022/08/12 07:30:06;;;;;;;3.30;2.13;;;20.80;69.30;;;;;;5024724;28;20049;-75
2022/08/12 07:32:32;;;;;;;5.40;2.33;;;20.90;69.30;;;;;;5018525;28;20048;-75
2022/08/12 07:34:58;;;;;;;5.55;3.03;;;20.90;69.10;;;;;;5027228;28;20708;-75
2022/08/12 07:37:23;;;;;;;8.77;2.45;;;20.90;68.90;;;;;;5017851;28;20037;-75
2022/08/12 07:39:49;;;;;;;3.88;2.30;;;21.00;69.00;;;;;;5020445;28;20026;-75
2022/08/12 07:42:15;;;;;;;4.97;2.92;;;21.10;69.10;;;;;;5026700;28;20370;-76
2022/08/12 07:44:42;;;;;;;4.88;2.53;;;21.20;68.90;;;;;;5023933;28;20022;-75
2022/08/12 07:47:09;;;;;;;6.60;2.53;;;21.30;68.90;;;;;;5022605;28;20025;-75
2022/08/12 07:49:34;;;;;;;4.32;2.20;;;21.40;68.40;;;;;;5019857;28;20568;-76
2022/08/12 07:52:00;;;;;;;3.83;2.42;;;21.50;67.20;;;;;;5025372;28;20029;-75
2022/08/12 07:54:26;;;;;;;4.50;1.80;;;21.50;66.70;;;;;;5024027;28;20022;-75
2022/08/12 07:56:52;;;;;;;5.00;2.63;;;21.60;66.70;;;;;;5024065;28;20034;-75
2022/08/12 07:59:18;;;;;;;3.88;2.42;;;21.70;66.40;;;;;;5023430;28;20024;-75
2022/08/12 08:01:43;;;;;;;3.25;2.10;;;21.80;66.10;;;;;;5024730;28;20036;-75
2022/08/12 08:06:54;;;;;;;7.07;2.30;;;22.00;65.40;;;;;;5026405;28;20032;-77
2022/08/12 08:09:21;;;;;;;5.80;2.30;;;22.10;64.60;;;;;;5025177;28;20033;-75
2022/08/12 08:14:31;;;;;;;5.22;2.33;;;22.30;64.10;;;;;;5023593;28;20583;-74
2022/08/12 08:16:59;;;;;;;3.70;1.90;;;22.40;64.10;;;;;;5027182;28;20034;-75
2022/08/12 08:19:27;;;;;;;8.70;2.40;;;22.50;63.10;;;;;;5023588;28;20401;-75
2022/08/12 08:21:54;;;;;;;6.28;2.55;;;22.60;63.90;;;;;;5025498;28;20025;-76
2022/08/12 08:24:26;;;;;;;3.83;2.17;;;22.60;64.00;;;;;;5019136;28;20033;-75
2022/08/12 08:26:55;;;;;;;3.22;2.05;;;22.70;64.30;;;;;;5024213;28;20053;-75
2022/08/12 08:29:24;;;;;;;8.32;2.30;;;22.80;64.20;;;;;;5028497;28;20060;-75
2022/08/12 08:31:56;;;;;;;5.10;2.33;;;22.90;63.90;;;;;;5031363;28;20055;-75
2022/08/12 08:34:25;;;;;;;4.40;2.50;;;22.90;63.90;;;;;;5025369;28;20039;-75
2022/08/12 08:36:50;;;;;;;5.30;2.33;;;22.90;63.80;;;;;;5025823;28;20037;-75
2022/08/12 08:39:16;;;;;;;4.30;1.73;;;23.10;63.70;;;;;;5024118;28;20382;-75
2022/08/12 08:44:26;;;;;;;6.28;1.95;;;23.10;62.90;;;;;;5026825;28;20024;-75
2022/08/12 08:46:54;;;;;;;4.97;1.73;;;23.30;59.50;;;;;;5026668;28;20033;-75
2022/08/12 08:49:21;;;;;;;2.00;1.20;;;23.40;56.00;;;;;;5024648;28;20041;-76
2022/08/12 08:51:47;;;;;;;2.17;1.23;;;23.60;55.20;;;;;;5027141;28;20021;-75
2022/08/12 08:54:13;;;;;;;4.47;1.70;;;23.60;54.20;;;;;;5023951;28;20052;-75
2022/08/12 08:56:43;;;;;;;5.70;1.80;;;23.70;53.70;;;;;;5025193;28;20025;-75
2022/08/12 08:59:10;;;;;;;2.92;1.77;;;23.80;53.80;;;;;;5023187;28;20064;-75
2022/08/12 09:01:36;;;;;;;3.72;1.60;;;23.90;53.80;;;;;;5024367;28;20108;-75
2022/08/12 09:04:02;;;;;;;4.68;1.42;;;23.90;54.00;;;;;;5024607;28;20079;-76
2022/08/12 09:06:28;;;;;;;5.18;1.80;;;24.00;54.00;;;;;;5023029;28;20022;-76
2022/08/12 09:08:53;;;;;;;5.85;1.80;;;24.00;54.10;;;;;;5021978;28;20030;-75
2022/08/12 09:14:06;;;;;;;3.35;1.67;;;24.20;54.10;;;;;;5022430;28;20440;-75
2022/08/12 09:16:33;;;;;;;5.45;1.50;;;24.20;53.70;;;;;;5026833;28;20026;-75
2022/08/12 09:19:00;;;;;;;2.22;1.55;;;24.30;53.30;;;;;;5024457;28;20041;-75
2022/08/12 09:21:27;;;;;;;2.65;1.48;;;24.40;53.30;;;;;;5021967;28;20075;-75
2022/08/12 09:23:57;;;;;;;5.15;1.65;;;24.40;53.00;;;;;;5021381;28;20503;-75
2022/08/12 09:26:24;;;;;;;3.90;1.83;;;24.40;53.10;;;;;;5024435;28;20103;-75
2022/08/12 09:28:50;;;;;;;4.30;1.92;;;24.50;53.70;;;;;;5024211;28;20045;-75
2022/08/12 09:31:16;;;;;;;2.08;1.65;;;24.60;53.80;;;;;;5017169;28;20029;-75
2022/08/12 09:33:42;;;;;;;4.30;1.67;;;24.60;53.10;;;;;;5022212;28;20424;-75
2022/08/12 09:36:07;;;;;;;4.00;1.60;;;24.60;52.60;;;;;;5024264;28;20053;-74
2022/08/12 09:38:33;;;;;;;4.88;1.70;;;24.60;52.70;;;;;;5024843;28;20034;-75
2022/08/12 09:40:59;;;;;;;3.08;1.35;;;24.60;52.60;;;;;;5041464;28;20079;-75
2022/08/12 09:46:14;;;;;;;2.72;1.40;;;24.70;51.40;;;;;;5026725;28;20086;-75
2022/08/12 09:48:40;;;;;;;3.03;1.38;;;24.80;51.90;;;;;;5025606;28;20026;-75
2022/08/12 09:51:08;;;;;;;4.65;1.58;;;24.80;52.20;;;;;;5022628;28;20096;-74
2022/08/12 09:53:33;;;;;;;3.50;1.38;;;24.90;52.10;;;;;;5024325;28;20040;-75
2022/08/12 09:56:01;;;;;;;4.10;1.50;;;24.90;51.50;;;;;;5018657;28;20033;-74
2022/08/12 09:58:28;;;;;;;2.22;1.40;;;24.90;51.30;;;;;;5025402;28;20040;-74
2022/08/12 10:01:03;;;;;;;3.15;1.77;;;25.00;51.80;;;;;;5022300;28;20106;-75
2022/08/12 10:03:31;;;;;;;3.10;1.40;;;25.00;51.30;;;;;;5026174;28;20026;-74
2022/08/12 10:05:58;;;;;;;3.92;1.63;;;25.10;50.90;;;;;;5022791;28;20036;-75
2022/08/12 10:08:26;;;;;;;2.58;1.60;;;25.10;51.10;;;;;;5022036;28;20033;-75
2022/08/12 10:13:41;;;;;;;2.67;1.35;;;25.00;50.80;;;;;;5032266;28;20036;-75
2022/08/12 10:16:17;;;;;;;2.63;1.30;;;25.00;50.50;;;;;;5022763;28;20029;-75
2022/08/12 10:19:05;;;;;;;3.70;1.25;;;25.00;49.80;;;;;;5023015;28;20026;-75
2022/08/12 10:21:35;;;;;;;4.13;1.30;;;25.20;49.20;;;;;;5023579;28;20469;-75
2022/08/12 10:24:11;;;;;;;5.15;1.45;;;25.20;48.80;;;;;;5022528;28;20036;-75
2022/08/12 10:29:43;;;;;;;2.67;1.30;;;25.30;49.10;;;;;;5023392;28;20203;-75
2022/08/12 10:32:13;;;;;;;2.45;1.30;;;25.30;49.30;;;;;;5023017;28;20040;-75
2022/08/12 10:34:39;;;;;;;4.15;1.67;;;25.40;49.40;;;;;;5021488;28;20038;-75
2022/08/12 10:37:05;;;;;;;2.47;1.38;;;25.40;49.10;;;;;;5027549;28;20075;-75
2022/08/12 10:39:34;;;;;;;5.22;1.58;;;25.40;49.20;;;;;;5021307;28;20029;-75
2022/08/12 10:45:05;;;;;;;2.58;1.40;;;25.50;48.50;;;;;;5021525;28;20496;-75
2022/08/12 10:47:32;;;;;;;3.90;1.70;;;25.50;49.10;;;;;;5022246;28;20035;-74
2022/08/12 10:50:02;;;;;;;2.70;1.50;;;25.50;49.20;;;;;;5024346;28;20025;-75
2022/08/12 10:52:29;;;;;;;5.95;1.45;;;25.50;48.90;;;;;;5039031;28;20112;-75
2022/08/12 10:54:55;;;;;;;6.25;1.63;;;25.50;49.00;;;;;;5026456;28;20363;-75
2022/08/12 10:57:25;;;;;;;3.58;1.63;;;25.60;49.10;;;;;;5022193;28;20060;-75
2022/08/12 10:59:56;;;;;;;4.55;1.20;;;25.60;49.00;;;;;;5024952;28;20146;-75
2022/08/12 11:02:26;;;;;;;2.65;1.70;;;25.70;49.00;;;;;;5026027;28;20029;-75
2022/08/12 11:04:56;;;;;;;3.10;1.60;;;25.70;48.80;;;;;;5022412;28;20021;-74
2022/08/12 11:07:23;;;;;;;3.33;1.63;;;25.70;48.50;;;;;;5026612;28;20029;-75
2022/08/12 11:09:49;;;;;;;1.83;1.30;;;25.70;48.10;;;;;;5025970;28;20388;-75
2022/08/12 11:12:16;;;;;;;2.88;1.40;;;25.70;48.30;;;;;;5043017;28;20021;-75
2022/08/12 11:14:42;;;;;;;8.18;1.88;;;25.70;47.60;;;;;;5022560;28;20025;-75
2022/08/12 11:17:11;;;;;;;4.00;1.65;;;25.70;47.70;;;;;;5024540;28;20037;-75
2022/08/12 11:19:39;;;;;;;2.67;1.20;;;25.70;47.50;;;;;;5024115;28;20034;-75
2022/08/12 11:22:07;;;;;;;2.70;1.33;;;25.60;47.60;;;;;;5008827;22;20053;-82
2022/08/12 11:24:33;;;;;;;2.55;1.63;;;25.60;47.50;;;;;;4998397;28;20052;-82
2022/08/12 11:27:01;;;;;;;2.05;1.35;;;25.60;47.60;;;;;;5007430;28;20337;-81
2022/08/12 11:29:30;;;;;;;3.47;1.38;;;25.60;47.70;;;;;;4992888;28;20026;-83
2022/08/12 11:31:56;;;;;;;3.03;1.40;;;25.60;47.70;;;;;;4987833;28;20396;-84
2022/08/12 11:34:21;;;;;;;3.08;1.70;;;25.70;48.10;;;;;;4987874;28;20031;-83
2022/08/12 11:37:06;;;;;;;1.10;1.00;;;25.60;47.50;;;;;;4986243;28;20042;-83
2022/08/12 11:39:33;;;;;;;2.72;1.20;;;25.70;47.70;;;;;;4985221;28;20030;-84
2022/08/12 11:42:01;;;;;;;3.88;1.77;;;25.80;48.20;;;;;;4984773;28;20034;-84
2022/08/12 11:44:26;;;;;;;3.05;1.48;;;25.80;48.20;;;;;;4986409;28;20483;-83
2022/08/12 11:46:53;;;;;;;2.47;1.58;;;25.80;48.20;;;;;;4983566;28;20121;-83
2022/08/12 11:49:23;;;;;;;4.00;1.63;;;25.80;48.20;;;;;;4990827;28;20023;-84
2022/08/12 11:51:49;;;;;;;2.40;1.30;;;25.90;48.40;;;;;;4991880;28;20057;-83
2022/08/12 11:54:15;;;;;;;5.20;1.40;;;26.00;47.70;;;;;;4987493;28;20057;-83
2022/08/12 11:56:40;;;;;;;2.58;1.30;;;26.00;47.60;;;;;;4991503;28;20034;-83
2022/08/12 11:59:06;;;;;;;1.65;1.20;;;26.00;47.60;;;;;;4988062;28;20022;-83
2022/08/12 12:01:32;;;;;;;3.38;1.50;;;26.10;47.60;;;;;;4988602;28;20023;-83
2022/08/12 12:03:58;;;;;;;2.08;1.30;;;26.20;47.90;;;;;;4988231;28;20069;-83
2022/08/12 12:06:24;;;;;;;3.90;1.40;;;26.20;47.80;;;;;;4988914;28;20097;-83
2022/08/12 12:08:49;;;;;;;4.00;1.42;;;26.30;47.80;;;;;;4987978;28;20034;-84
2022/08/12 12:11:15;;;;;;;4.20;1.40;;;26.40;47.70;;;;;;4989675;28;20073;-84
2022/08/12 12:13:41;;;;;;;4.35;1.35;;;26.40;47.00;;;;;;4991892;28;20022;-83
2022/08/12 12:16:07;;;;;;;3.63;1.10;;;26.40;46.80;;;;;;4992211;28;20489;-83
2022/08/12 12:18:33;;;;;;;4.10;1.40;;;26.40;46.90;;;;;;4986312;28;20023;-83
2022/08/12 12:21:03;;;;;;;3.10;1.20;;;26.30;47.20;;;;;;4986618;28;20141;-84
2022/08/12 12:23:30;;;;;;;4.28;1.38;;;26.30;47.20;;;;;;4992557;28;20015;-83
2022/08/12 12:25:57;;;;;;;3.08;1.50;;;26.30;47.50;;;;;;4991655;28;20030;-83
2022/08/12 12:28:22;;;;;;;5.45;1.42;;;26.40;47.70;;;;;;4988332;28;20045;-83
2022/08/12 12:30:48;;;;;;;2.75;1.30;;;26.40;47.30;;;;;;4985291;28;20035;-82
2022/08/12 12:33:14;;;;;;;5.43;1.55;;;26.40;47.50;;;;;;4988192;28;20087;-82
2022/08/12 12:35:40;;;;;;;3.53;1.63;;;26.40;47.00;;;;;;4988643;28;20057;-84
2022/08/12 12:38:10;;;;;;;3.60;1.60;;;26.50;47.10;;;;;;4985615;28;20065;-82
2022/08/12 12:40:38;;;;;;;3.75;1.15;;;26.40;47.10;;;;;;4989035;28;20114;-84
2022/08/12 12:43:05;;;;;;;3.13;1.60;;;26.40;47.30;;;;;;4992400;28;20030;-84
2022/08/12 12:45:32;;;;;;;3.17;1.35;;;26.40;47.60;;;;;;4983565;28;20411;-84
2022/08/12 12:47:59;;;;;;;6.43;2.10;;;26.30;47.50;;;;;;4988692;28;20033;-83
2022/08/12 12:50:27;;;;;;;3.83;1.40;;;26.20;47.50;;;;;;4982857;28;20099;-84
2022/08/12 12:52:53;;;;;;;3.47;1.25;;;26.10;47.60;;;;;;4991764;28;20040;-84
2022/08/12 12:55:21;;;;;;;3.25;1.40;;;26.10;47.70;;;;;;4987008;28;20037;-83
2022/08/12 12:57:47;;;;;;;2.25;1.55;;;26.00;47.40;;;;;;4989518;28;20235;-83
2022/08/12 13:00:14;;;;;;;1.92;1.50;;;26.10;47.80;;;;;;4987546;28;20061;-84
2022/08/12 13:02:51;;;;;;;3.85;1.83;;;26.10;47.60;;;;;;4987382;28;20402;-83
2022/08/12 13:05:30;;;;;;;3.33;1.10;;;26.20;47.80;;;;;;4985697;28;20027;-84
2022/08/12 13:07:57;;;;;;;3.17;1.40;;;26.30;47.50;;;;;;4988627;28;20518;-83
2022/08/12 13:10:24;;;;;;;1.65;1.27;;;26.30;47.60;;;;;;4986150;28;20041;-83
2022/08/12 13:12:51;;;;;;;2.70;1.20;;;26.30;47.30;;;;;;4989196;28;20387;-84
2022/08/12 13:15:17;;;;;;;3.50;1.17;;;26.30;47.30;;;;;;4991756;28;20058;-84
2022/08/12 13:17:48;;;;;;;5.03;1.27;;;26.30;46.90;;;;;;4989416;28;20078;-84
2022/08/12 13:20:17;;;;;;;3.50;1.60;;;26.20;46.90;;;;;;4987216;28;20023;-84
2022/08/12 13:22:44;;;;;;;3.22;1.20;;;26.20;47.20;;;;;;4990779;28;20073;-83
2022/08/12 13:25:11;;;;;;;3.33;1.15;;;26.20;47.30;;;;;;4989076;28;20088;-84
2022/08/12 13:27:44;;;;;;;5.53;1.27;;;26.30;47.00;;;;;;4987355;28;20028;-83
2022/08/12 13:30:14;;;;;;;2.72;1.52;;;26.30;47.00;;;;;;4992715;28;20107;-82
2022/08/12 13:32:45;;;;;;;2.20;1.42;;;26.40;47.20;;;;;;4990514;28;20031;-82
2022/08/12 13:35:15;;;;;;;4.68;1.58;;;26.40;47.20;;;;;;4991235;28;20030;-83
2022/08/12 13:37:42;;;;;;;3.63;1.35;;;26.50;47.20;;;;;;4995428;28;20077;-83
2022/08/12 13:40:09;;;;;;;3.15;1.40;;;26.50;47.80;;;;;;4986478;28;20371;-83
2022/08/12 13:42:38;;;;;;;2.55;1.20;;;26.50;47.00;;;;;;4986876;28;20019;-84
2022/08/12 13:45:05;;;;;;;3.08;1.70;;;26.50;46.50;;;;;;4985202;28;20026;-83
2022/08/12 13:47:59;;;;;;;3.20;1.48;;;26.50;46.50;;;;;;4987624;28;20026;-80
2022/08/12 13:50:31;;;;;;;;;;;26.40;46.30;;;;;;4986238;28;20731;-84
2022/08/12 13:53:00;;;;;;;2.22;1.27;;;26.40;46.60;;;;;;4993460;28;19924;-84
2022/08/12 13:55:27;;;;;;;3.33;1.20;;;26.40;46.60;;;;;;4989523;28;20418;-84
2022/08/12 13:57:54;;;;;;;4.68;1.27;;;26.40;46.70;;;;;;4990809;28;20034;-84
2022/08/12 14:00:21;;;;;;;3.15;1.70;;;26.40;46.80;;;;;;4986014;28;20033;-84
2022/08/12 14:02:47;;;;;;;1.63;1.25;;;26.40;46.80;;;;;;4992746;28;20031;-84
2022/08/12 14:05:13;;;;;;;3.72;1.08;;;26.40;46.90;;;;;;4989465;28;20101;-84
2022/08/12 14:08:00;;;;;;;2.80;1.17;;;26.50;46.70;;;;;;4991013;28;20033;-84
2022/08/12 14:10:38;;;;;;;2.97;1.45;;;26.50;46.50;;;;;;4990286;28;20701;-83
2022/08/12 14:13:17;;;;;;;1.73;1.17;;;26.50;46.60;;;;;;4988729;28;20483;-85
2022/08/12 14:15:45;;;;;;;4.82;1.50;;;26.60;46.70;;;;;;4995059;28;20030;-85
2022/08/12 14:18:18;;;;;;;1.67;1.30;;;26.60;46.20;;;;;;4989952;28;20077;-84
2022/08/12 14:20:52;;;;;;;3.97;1.40;;;26.70;46.00;;;;;;4990866;28;20034;-83
2022/08/12 14:23:18;;;;;;;5.15;1.10;;;26.70;45.90;;;;;;4991700;28;20030;-83
2022/08/12 14:25:45;;;;;;;4.68;1.52;;;26.70;46.00;;;;;;4994626;28;20077;-84
2022/08/12 14:28:17;;;;;;;3.17;1.40;;;26.80;46.20;;;;;;4988126;28;20076;-84
2022/08/12 14:30:55;;;;;;;4.97;1.30;;;26.80;46.30;;;;;;4988831;28;20057;-83
2022/08/12 14:33:27;;;;;;;1.88;1.30;;;26.80;46.20;;;;;;4988959;28;20084;-83
2022/08/12 14:35:53;;;;;;;5.47;1.63;;;26.80;46.20;;;;;;4982959;28;20061;-85
2022/08/12 14:38:24;;;;;;;3.10;1.45;;;26.80;46.10;;;;;;4985608;28;20659;-85
2022/08/12 14:40:55;;;;;;;3.30;1.85;;;26.90;47.00;;;;;;4999799;28;20041;-81
2022/08/12 14:43:21;;;;;;;4.15;1.60;;;26.90;47.10;;;;;;4985323;28;20050;-81